sensor_id;sensor_type;location;lat;lon;timestamp;P1;durP1;ratioP1;P2;durP2;ratioP2
11453;SDS011;5783;55.174;61.310;2024-03-08T06:19:38;6.83;;;4.93;;
11453;SDS011;5783;55.174;61.310;2024-03-08T06:22:07;7.90;;;4.70;;
11453;SDS011;5783;55.174;61.310;2024-03-08T06:24:36;16.50;;;6.00;;
11453;SDS011;5783;55.174;61.310;2024-03-08T06:27:05;13.97;;;5.73;;
11453;SDS011;5783;55.174;61.310;2024-03-08T06:29:36;8.40;;;4.60;;
11453;SDS011;5783;55.174;61.310;2024-03-08T06:32:05;12.07;;;5.07;;
11453;SDS011;5783;55.174;61.310;2024-03-08T06:34:35;16.50;;;5.97;;
11453;SDS011;5783;55.174;61.310;2024-03-08T06:37:04;6.67;;;4.03;;
11453;SDS011;5783;55.174;61.310;2024-03-08T06:39:33;14.63;;;5.20;;
11453;SDS011;5783;55.174;61.310;2024-03-08T06:42:02;8.90;;;4.85;;
11453;SDS011;5783;55.174;61.310;2024-03-08T06:44:31;6.05;;;3.85;;
11453;SDS011;5783;55.174;61.310;2024-03-08T06:47:00;5.90;;;3.70;;
11453;SDS011;5783;55.174;61.310;2024-03-08T06:49:31;5.20;;;3.60;;
11453;SDS011;5783;55.174;61.310;2024-03-08T06:52:00;7.75;;;3.60;;
11453;SDS011;5783;55.174;61.310;2024-03-08T06:54:30;5.30;;;3.60;;
11453;SDS011;5783;55.174;61.310;2024-03-08T06:56:59;9.90;;;3.30;;
11453;SDS011;5783;55.174;61.310;2024-03-08T06:59:29;5.93;;;3.47;;
11453;SDS011;5783;55.174;61.310;2024-03-08T07:02:01;6.57;;;3.50;;
11453;SDS011;5783;55.174;61.310;2024-03-08T07:04:33;4.15;;;2.90;;
11453;SDS011;5783;55.174;61.310;2024-03-08T07:07:04;7.30;;;3.15;;
11453;SDS011;5783;55.174;61.310;2024-03-08T07:09:52;16.33;;;4.43;;
11453;SDS011;5783;55.174;61.310;2024-03-08T07:12:22;10.60;;;3.37;;
11453;SDS011;5783;55.174;61.310;2024-03-08T07:14:52;16.27;;;4.90;;
11453;SDS011;5783;55.174;61.310;2024-03-08T07:17:21;11.80;;;4.17;;
11453;SDS011;5783;55.174;61.310;2024-03-08T07:19:50;10.93;;;3.93;;
11453;SDS011;5783;55.174;61.310;2024-03-08T07:22:20;5.13;;;2.90;;
11453;SDS011;5783;55.174;61.310;2024-03-08T07:24:49;4.95;;;2.90;;
11453;SDS011;5783;55.174;61.310;2024-03-08T07:27:38;21.23;;;5.10;;
11453;SDS011;5783;55.174;61.310;2024-03-08T07:30:07;4.83;;;2.50;;
11453;SDS011;5783;55.174;61.310;2024-03-08T07:32:37;4.73;;;2.77;;
11453;SDS011;5783;55.174;61.310;2024-03-08T07:35:06;4.30;;;2.70;;
11453;SDS011;5783;55.174;61.310;2024-03-08T07:37:35;3.20;;;2.63;;
11453;SDS011;5783;55.174;61.310;2024-03-08T07:40:06;7.70;;;3.47;;
11453;SDS011;5783;55.174;61.310;2024-03-08T07:42:36;5.23;;;2.50;;
11453;SDS011;5783;55.174;61.310;2024-03-08T07:45:05;4.67;;;2.73;;
11453;SDS011;5783;55.174;61.310;2024-03-08T07:47:35;7.90;;;3.20;;
11453;SDS011;5783;55.174;61.310;2024-03-08T07:50:06;4.00;;;2.50;;
11453;SDS011;5783;55.174;61.310;2024-03-08T07:52:36;4.70;;;2.70;;
11453;SDS011;5783;55.174;61.310;2024-03-08T07:55:08;3.80;;;2.47;;
11453;SDS011;5783;55.174;61.310;2024-03-08T07:57:37;7.07;;;2.80;;
11453;SDS011;5783;55.174;61.310;2024-03-08T08:00:06;5.67;;;2.30;;
11453;SDS011;5783;55.174;61.310;2024-03-08T08:02:36;4.43;;;2.70;;
11453;SDS011;5783;55.174;61.310;2024-03-08T08:05:06;7.00;;;2.93;;
11453;SDS011;5783;55.174;61.310;2024-03-08T08:07:36;3.10;;;2.30;;
11453;SDS011;5783;55.174;61.310;2024-03-08T08:10:07;4.07;;;2.37;;
11453;SDS011;5783;55.174;61.310;2024-03-08T08:12:38;16.23;;;3.23;;
11453;SDS011;5783;55.174;61.310;2024-03-08T08:15:07;6.30;;;2.80;;
11453;SDS011;5783;55.174;61.310;2024-03-08T08:17:37;9.47;;;2.87;;
11453;SDS011;5783;55.174;61.310;2024-03-08T08:20:06;8.93;;;3.93;;
11453;SDS011;5783;55.174;61.310;2024-03-08T08:22:37;7.37;;;3.93;;
11453;SDS011;5783;55.174;61.310;2024-03-08T08:25:08;5.40;;;3.53;;
11453;SDS011;5783;55.174;61.310;2024-03-08T08:27:39;15.83;;;5.87;;
11453;SDS011;5783;55.174;61.310;2024-03-08T08:30:09;10.40;;;4.50;;
11453;SDS011;5783;55.174;61.310;2024-03-08T08:32:39;5.80;;;4.37;;
11453;SDS011;5783;55.174;61.310;2024-03-08T08:35:09;7.60;;;5.00;;
11453;SDS011;5783;55.174;61.310;2024-03-08T08:37:39;8.93;;;4.67;;
11453;SDS011;5783;55.174;61.310;2024-03-08T08:40:08;9.40;;;5.80;;
11453;SDS011;5783;55.174;61.310;2024-03-08T08:42:39;9.93;;;5.73;;
11453;SDS011;5783;55.174;61.310;2024-03-08T08:45:09;9.90;;;6.10;;
11453;SDS011;5783;55.174;61.310;2024-03-08T08:47:38;6.40;;;4.67;;
11453;SDS011;5783;55.174;61.310;2024-03-08T08:50:08;8.10;;;5.43;;
11453;SDS011;5783;55.174;61.310;2024-03-08T08:52:38;13.67;;;7.53;;
11453;SDS011;5783;55.174;61.310;2024-03-08T08:55:09;11.43;;;7.20;;
11453;SDS011;5783;55.174;61.310;2024-03-08T08:57:59;8.63;;;5.70;;
11453;SDS011;5783;55.174;61.310;2024-03-08T09:00:29;10.60;;;5.80;;
11453;SDS011;5783;55.174;61.310;2024-03-08T09:02:59;22.80;;;7.50;;
11453;SDS011;5783;55.174;61.310;2024-03-08T09:05:28;25.20;;;6.50;;
11453;SDS011;5783;55.174;61.310;2024-03-08T09:07:58;24.00;;;8.13;;
11453;SDS011;5783;55.174;61.310;2024-03-08T09:10:28;12.63;;;6.47;;
11453;SDS011;5783;55.174;61.310;2024-03-08T09:12:58;13.33;;;6.13;;
11453;SDS011;5783;55.174;61.310;2024-03-08T09:15:28;13.70;;;6.70;;
11453;SDS011;5783;55.174;61.310;2024-03-08T09:17:57;14.03;;;7.00;;
11453;SDS011;5783;55.174;61.310;2024-03-08T09:20:27;10.23;;;5.20;;
11453;SDS011;5783;55.174;61.310;2024-03-08T09:22:57;9.97;;;5.50;;
11453;SDS011;5783;55.174;61.310;2024-03-08T09:25:26;7.80;;;5.57;;
11453;SDS011;5783;55.174;61.310;2024-03-08T09:27:56;6.13;;;4.50;;
11453;SDS011;5783;55.174;61.310;2024-03-08T09:30:25;12.73;;;4.87;;
11453;SDS011;5783;55.174;61.310;2024-03-08T09:32:54;7.77;;;4.30;;
11453;SDS011;5783;55.174;61.310;2024-03-08T09:35:24;9.17;;;3.90;;
11453;SDS011;5783;55.174;61.310;2024-03-08T09:37:53;10.97;;;4.30;;
11453;SDS011;5783;55.174;61.310;2024-03-08T09:40:22;5.83;;;3.50;;
11453;SDS011;5783;55.174;61.310;2024-03-08T09:42:53;6.17;;;3.40;;
11453;SDS011;5783;55.174;61.310;2024-03-08T09:45:23;4.60;;;2.90;;
11453;SDS011;5783;55.174;61.310;2024-03-08T09:47:55;4.20;;;3.00;;
11453;SDS011;5783;55.174;61.310;2024-03-08T09:50:24;4.63;;;2.83;;
11453;SDS011;5783;55.174;61.310;2024-03-08T09:52:55;3.93;;;2.30;;
11453;SDS011;5783;55.174;61.310;2024-03-08T09:55:25;4.47;;;2.60;;
11453;SDS011;5783;55.174;61.310;2024-03-08T09:57:55;4.07;;;2.47;;
11453;SDS011;5783;55.174;61.310;2024-03-08T10:00:46;4.77;;;2.50;;
11453;SDS011;5783;55.174;61.310;2024-03-08T10:03:16;3.83;;;2.23;;
11453;SDS011;5783;55.174;61.310;2024-03-08T10:05:45;5.80;;;2.93;;
11453;SDS011;5783;55.174;61.310;2024-03-08T10:08:14;5.17;;;2.50;;
11453;SDS011;5783;55.174;61.310;2024-03-08T10:10:43;5.30;;;2.20;;
11453;SDS011;5783;55.174;61.310;2024-03-08T10:13:12;3.37;;;2.20;;
11453;SDS011;5783;55.174;61.310;2024-03-08T10:15:42;4.83;;;2.60;;
11453;SDS011;5783;55.174;61.310;2024-03-08T10:18:12;3.50;;;2.10;;
11453;SDS011;5783;55.174;61.310;2024-03-08T10:20:41;4.30;;;2.00;;
11453;SDS011;5783;55.174;61.310;2024-03-08T10:23:11;3.43;;;2.13;;
11453;SDS011;5783;55.174;61.310;2024-03-08T10:25:40;5.77;;;2.27;;
11453;SDS011;5783;55.174;61.310;2024-03-08T10:28:10;4.67;;;1.80;;
11453;SDS011;5783;55.174;61.310;2024-03-08T10:30:46;2.80;;;1.90;;
11453;SDS011;5783;55.174;61.310;2024-03-08T10:33:16;5.17;;;2.10;;
11453;SDS011;5783;55.174;61.310;2024-03-08T10:35:45;3.23;;;2.10;;
11453;SDS011;5783;55.174;61.310;2024-03-08T10:38:15;3.07;;;1.80;;
11453;SDS011;5783;55.174;61.310;2024-03-08T10:40:47;3.37;;;2.00;;
11453;SDS011;5783;55.174;61.310;2024-03-08T10:43:19;3.80;;;2.30;;
11453;SDS011;5783;55.174;61.310;2024-03-08T10:49:00;3.73;;;1.87;;
11453;SDS011;5783;55.174;61.310;2024-03-08T10:51:31;3.10;;;1.93;;
11453;SDS011;5783;55.174;61.310;2024-03-08T10:54:01;3.33;;;2.03;;
11453;SDS011;5783;55.174;61.310;2024-03-08T10:56:33;4.87;;;2.20;;
11453;SDS011;5783;55.174;61.310;2024-03-08T10:59:02;4.20;;;2.20;;
11453;SDS011;5783;55.174;61.310;2024-03-08T11:01:31;3.97;;;2.17;;
11453;SDS011;5783;55.174;61.310;2024-03-08T11:04:00;6.37;;;2.73;;
11453;SDS011;5783;55.174;61.310;2024-03-08T11:06:51;4.17;;;2.53;;
11453;SDS011;5783;55.174;61.310;2024-03-08T11:15:01;5.73;;;2.50;;
11453;SDS011;5783;55.174;61.310;2024-03-08T11:20:24;5.63;;;2.57;;
11453;SDS011;5783;55.174;61.310;2024-03-08T11:25:45;3.27;;;2.30;;
11453;SDS011;5783;55.174;61.310;2024-03-08T11:28:17;6.67;;;2.43;;
11453;SDS011;5783;55.174;61.310;2024-03-08T11:33:40;5.77;;;2.53;;
11453;SDS011;5783;55.174;61.310;2024-03-08T11:39:01;2.50;;;2.30;;
11453;SDS011;5783;55.174;61.310;2024-03-08T11:41:32;4.33;;;2.77;;
11453;SDS011;5783;55.174;61.310;2024-03-08T11:44:03;4.27;;;2.30;;
11453;SDS011;5783;55.174;61.310;2024-03-08T11:46:35;3.90;;;2.60;;
11453;SDS011;5783;55.174;61.310;2024-03-08T11:49:06;4.10;;;2.53;;
11453;SDS011;5783;55.174;61.310;2024-03-08T11:51:35;4.50;;;2.40;;
11453;SDS011;5783;55.174;61.310;2024-03-08T11:54:04;4.03;;;2.50;;
11453;SDS011;5783;55.174;61.310;2024-03-08T11:56:34;2.93;;;2.37;;
11453;SDS011;5783;55.174;61.310;2024-03-08T11:59:03;4.87;;;2.10;;
11453;SDS011;5783;55.174;61.310;2024-03-08T12:01:32;3.37;;;2.50;;
11453;SDS011;5783;55.174;61.310;2024-03-08T12:04:02;2.87;;;2.50;;
11453;SDS011;5783;55.174;61.310;2024-03-08T12:09:21;4.13;;;2.70;;
11453;SDS011;5783;55.174;61.310;2024-03-08T12:11:50;4.77;;;2.70;;
11453;SDS011;5783;55.174;61.310;2024-03-08T12:14:19;4.50;;;2.60;;
11453;SDS011;5783;55.174;61.310;2024-03-08T12:16:51;4.33;;;2.47;;
11453;SDS011;5783;55.174;61.310;2024-03-08T12:19:23;4.60;;;2.73;;
11453;SDS011;5783;55.174;61.310;2024-03-08T12:21:54;4.17;;;2.40;;
11453;SDS011;5783;55.174;61.310;2024-03-08T12:24:23;5.43;;;2.70;;
11453;SDS011;5783;55.174;61.310;2024-03-08T12:26:53;5.07;;;2.60;;
11453;SDS011;5783;55.174;61.310;2024-03-08T12:32:12;6.27;;;2.80;;
11453;SDS011;5783;55.174;61.310;2024-03-08T12:34:41;3.67;;;2.70;;
11453;SDS011;5783;55.174;61.310;2024-03-08T12:37:11;4.00;;;2.70;;
11453;SDS011;5783;55.174;61.310;2024-03-08T12:39:42;4.03;;;2.70;;
11453;SDS011;5783;55.174;61.310;2024-03-08T12:42:12;3.63;;;2.50;;
11453;SDS011;5783;55.174;61.310;2024-03-08T12:44:45;3.60;;;2.67;;
11453;SDS011;5783;55.174;61.310;2024-03-08T12:47:14;3.47;;;2.50;;
11453;SDS011;5783;55.174;61.310;2024-03-08T12:49:44;4.93;;;2.80;;
11453;SDS011;5783;55.174;61.310;2024-03-08T12:52:14;6.07;;;3.20;;
11453;SDS011;5783;55.174;61.310;2024-03-08T12:54:44;4.67;;;2.60;;
11453;SDS011;5783;55.174;61.310;2024-03-08T12:57:13;4.87;;;2.67;;
11453;SDS011;5783;55.174;61.310;2024-03-08T12:59:42;4.87;;;2.83;;
11453;SDS011;5783;55.174;61.310;2024-03-08T13:02:12;4.23;;;2.57;;
11453;SDS011;5783;55.174;61.310;2024-03-08T13:04:42;4.27;;;2.70;;
11453;SDS011;5783;55.174;61.310;2024-03-08T13:07:14;5.67;;;2.70;;
11453;SDS011;5783;55.174;61.310;2024-03-08T13:09:44;3.70;;;2.73;;
11453;SDS011;5783;55.174;61.310;2024-03-08T13:12:13;6.20;;;2.50;;
11453;SDS011;5783;55.174;61.310;2024-03-08T13:14:42;3.27;;;2.97;;
11453;SDS011;5783;55.174;61.310;2024-03-08T13:17:13;4.53;;;2.90;;
11453;SDS011;5783;55.174;61.310;2024-03-08T13:19:44;3.20;;;2.83;;
11453;SDS011;5783;55.174;61.310;2024-03-08T13:22:13;5.20;;;2.90;;
11453;SDS011;5783;55.174;61.310;2024-03-08T13:24:43;7.83;;;3.20;;
11453;SDS011;5783;55.174;61.310;2024-03-08T13:27:12;4.70;;;2.80;;
11453;SDS011;5783;55.174;61.310;2024-03-08T13:30:00;6.90;;;3.57;;
11453;SDS011;5783;55.174;61.310;2024-03-08T13:32:33;8.10;;;3.63;;
11453;SDS011;5783;55.174;61.310;2024-03-08T13:35:03;4.63;;;3.57;;
11453;SDS011;5783;55.174;61.310;2024-03-08T13:37:35;7.43;;;4.23;;
11453;SDS011;5783;55.174;61.310;2024-03-08T13:40:05;8.70;;;4.50;;
11453;SDS011;5783;55.174;61.310;2024-03-08T13:42:57;10.33;;;5.07;;
11453;SDS011;5783;55.174;61.310;2024-03-08T13:45:27;10.33;;;5.00;;
11453;SDS011;5783;55.174;61.310;2024-03-08T13:47:56;9.17;;;5.17;;
11453;SDS011;5783;55.174;61.310;2024-03-08T13:50:25;9.90;;;4.97;;
11453;SDS011;5783;55.174;61.310;2024-03-08T13:52:56;10.53;;;5.83;;
11453;SDS011;5783;55.174;61.310;2024-03-08T13:55:25;10.00;;;5.87;;
11453;SDS011;5783;55.174;61.310;2024-03-08T13:57:54;12.13;;;5.67;;
11453;SDS011;5783;55.174;61.310;2024-03-08T14:00:25;9.35;;;5.65;;
11453;SDS011;5783;55.174;61.310;2024-03-08T14:02:56;13.43;;;5.53;;
11453;SDS011;5783;55.174;61.310;2024-03-08T14:05:25;12.20;;;5.70;;
11453;SDS011;5783;55.174;61.310;2024-03-08T14:07:56;7.80;;;5.63;;
11453;SDS011;5783;55.174;61.310;2024-03-08T14:10:27;10.67;;;5.90;;
11453;SDS011;5783;55.174;61.310;2024-03-08T14:12:57;8.40;;;5.90;;
11453;SDS011;5783;55.174;61.310;2024-03-08T14:15:26;12.60;;;6.20;;
11453;SDS011;5783;55.174;61.310;2024-03-08T14:17:59;11.73;;;6.47;;
11453;SDS011;5783;55.174;61.310;2024-03-08T14:20:51;10.00;;;5.90;;
11453;SDS011;5783;55.174;61.310;2024-03-08T14:23:19;10.90;;;5.73;;
11453;SDS011;5783;55.174;61.310;2024-03-08T14:25:49;11.97;;;6.47;;
11453;SDS011;5783;55.174;61.310;2024-03-08T14:28:18;11.73;;;5.67;;
11453;SDS011;5783;55.174;61.310;2024-03-08T14:30:48;11.77;;;6.77;;
11453;SDS011;5783;55.174;61.310;2024-03-08T14:33:18;10.17;;;6.30;;
11453;SDS011;5783;55.174;61.310;2024-03-08T14:35:48;9.10;;;5.83;;
11453;SDS011;5783;55.174;61.310;2024-03-08T14:38:17;12.40;;;6.60;;
11453;SDS011;5783;55.174;61.310;2024-03-08T14:40:46;11.13;;;6.13;;
11453;SDS011;5783;55.174;61.310;2024-03-08T14:43:15;10.57;;;6.10;;
11453;SDS011;5783;55.174;61.310;2024-03-08T14:45:46;10.07;;;5.73;;
11453;SDS011;5783;55.174;61.310;2024-03-08T14:48:16;9.07;;;5.63;;
11453;SDS011;5783;55.174;61.310;2024-03-08T14:50:45;8.63;;;6.10;;
11453;SDS011;5783;55.174;61.310;2024-03-08T14:53:14;11.07;;;6.43;;
11453;SDS011;5783;55.174;61.310;2024-03-08T14:55:44;10.60;;;6.13;;
11453;SDS011;5783;55.174;61.310;2024-03-08T14:58:13;10.67;;;6.30;;
11453;SDS011;5783;55.174;61.310;2024-03-08T15:00:43;11.70;;;6.73;;
11453;SDS011;5783;55.174;61.310;2024-03-08T15:03:12;8.70;;;5.70;;
11453;SDS011;5783;55.174;61.310;2024-03-08T15:05:42;6.87;;;5.40;;
11453;SDS011;5783;55.174;61.310;2024-03-08T15:08:13;11.60;;;5.80;;
11453;SDS011;5783;55.174;61.310;2024-03-08T15:11:02;9.10;;;5.90;;
11453;SDS011;5783;55.174;61.310;2024-03-08T15:13:32;8.35;;;5.60;;
11453;SDS011;5783;55.174;61.310;2024-03-08T15:16:21;8.83;;;6.03;;
11453;SDS011;5783;55.174;61.310;2024-03-08T15:18:51;11.00;;;6.05;;
11453;SDS011;5783;55.174;61.310;2024-03-08T15:21:20;9.93;;;5.87;;
11453;SDS011;5783;55.174;61.310;2024-03-08T15:26:20;6.77;;;5.47;;
11453;SDS011;5783;55.174;61.310;2024-03-08T15:28:51;8.60;;;5.70;;
11453;SDS011;5783;55.174;61.310;2024-03-08T15:31:21;7.00;;;5.60;;
11453;SDS011;5783;55.174;61.310;2024-03-08T15:34:10;7.55;;;5.50;;
11453;SDS011;5783;55.174;61.310;2024-03-08T15:36:41;11.10;;;5.95;;
11453;SDS011;5783;55.174;61.310;2024-03-08T15:39:12;8.23;;;5.50;;
11453;SDS011;5783;55.174;61.310;2024-03-08T15:41:41;7.20;;;5.40;;
11453;SDS011;5783;55.174;61.310;2024-03-08T15:44:29;8.30;;;5.70;;
11453;SDS011;5783;55.174;61.310;2024-03-08T15:46:58;9.20;;;6.10;;
11453;SDS011;5783;55.174;61.310;2024-03-08T15:49:27;10.00;;;6.40;;
11453;SDS011;5783;55.174;61.310;2024-03-08T15:51:56;10.40;;;6.17;;
11453;SDS011;5783;55.174;61.310;2024-03-08T15:54:25;9.10;;;6.20;;
11453;SDS011;5783;55.174;61.310;2024-03-08T15:56:54;8.60;;;5.70;;
11453;SDS011;5783;55.174;61.310;2024-03-08T15:59:26;8.00;;;5.55;;
11453;SDS011;5783;55.174;61.310;2024-03-08T16:01:55;10.70;;;6.00;;
11453;SDS011;5783;55.174;61.310;2024-03-08T16:04:24;7.67;;;5.80;;
11453;SDS011;5783;55.174;61.310;2024-03-08T16:09:21;7.90;;;5.80;;
11453;SDS011;5783;55.174;61.310;2024-03-08T16:11:51;7.75;;;6.00;;
11453;SDS011;5783;55.174;61.310;2024-03-08T16:14:23;8.80;;;5.40;;
11453;SDS011;5783;55.174;61.310;2024-03-08T16:21:49;8.25;;;5.65;;
11453;SDS011;5783;55.174;61.310;2024-03-08T16:26:46;8.50;;;5.20;;
11453;SDS011;5783;55.174;61.310;2024-03-08T16:34:11;8.20;;;5.10;;
11453;SDS011;5783;55.174;61.310;2024-03-08T16:36:42;10.60;;;5.50;;
11453;SDS011;5783;55.174;61.310;2024-03-08T16:44:08;7.50;;;4.90;;
11453;SDS011;5783;55.174;61.310;2024-03-08T16:49:07;5.90;;;4.80;;
11453;SDS011;5783;55.174;61.310;2024-03-08T17:46:13;5.60;;;4.20;;
11453;SDS011;5783;55.174;61.310;2024-03-08T17:58:56;8.40;;;4.50;;
11453;SDS011;5783;55.174;61.310;2024-03-08T18:23:43;5.50;;;4.25;;
11453;SDS011;5783;55.174;61.310;2024-03-08T19:28:50;4.70;;;3.90;;
